Time;durP1;ratioP1;P1;durP2;ratioP2;P2;SDS_P1;SDS_P2;PMS_P1;PMS_P2;Temp;Humidity;BMP_temperature;BMP_pressure;BME280_temperature;BME280_humidity;BME280_pressure;Samples;Min_cycle;Max_cycle;Signal;HPM_P1;HPM_P2
2023/04/22 00:00:25;;;;;;;3.67;1.90;;;;;;;8.13;48.97;101074.81;2080856;28;20379;-67
2023/04/22 00:01:30;;;;;;;4.53;2.10;;;;;;;8.08;49.40;101066.72;2090358;28;20253;-68
2023/04/22 00:02:36;;;;;;;4.95;1.95;;;;;;;8.10;49.45;101069.97;2106405;28;20316;-68
2023/04/22 00:03:38;;;;;;;2.40;1.48;;;;;;;8.10;49.36;101075.31;2098077;28;20205;-69
2023/04/22 00:04:40;;;;;;;5.18;1.90;;;;;;;8.09;49.12;101072.88;2097633;28;21031;-68
2023/04/22 00:05:46;;;;;;;3.60;2.10;;;;;;;8.08;49.12;101073.94;2114434;28;20251;-68
2023/04/22 00:06:51;;;;;;;5.65;2.40;;;;;;;8.04;49.68;101068.28;2115725;28;20988;-68
2023/04/22 00:07:55;;;;;;;5.85;1.88;;;;;;;7.99;49.87;101070.88;2106714;28;21188;-67
2023/04/22 00:08:59;;;;;;;3.25;1.92;;;;;;;7.97;49.85;101070.31;2090291;28;20263;-68
2023/04/22 00:10:01;;;;;;;4.00;1.90;;;;;;;7.93;49.92;101066.53;2098733;28;21155;-67
2023/04/22 00:11:05;;;;;;;4.55;1.92;;;;;;;7.92;50.26;101066.78;2097801;28;20253;-68
2023/04/22 00:12:07;;;;;;;4.22;1.88;;;;;;;7.91;49.88;101071.31;2106512;28;20207;-67
2023/04/22 00:13:09;;;;;;;4.82;2.10;;;;;;;7.89;49.81;101062.72;2106398;28;20215;-68
2023/04/22 00:14:18;;;;;;;5.50;2.08;;;;;;;7.84;50.08;101068.00;2115294;28;20331;-67
2023/04/22 00:15:25;;;;;;;3.05;2.10;;;;;;;7.80;49.96;101064.22;2106178;28;20256;-68
2023/04/22 00:16:29;;;;;;;2.58;1.70;;;;;;;7.74;50.03;101049.13;2098952;28;21067;-68
2023/04/22 00:17:36;;;;;;;5.13;2.03;;;;;;;7.71;50.38;101061.16;2107303;28;20199;-68
2023/04/22 00:18:42;;;;;;;6.15;2.17;;;;;;;7.67;50.44;101062.69;2115671;28;20207;-68
2023/04/22 00:19:43;;;;;;;5.65;2.10;;;;;;;7.63;50.94;101066.94;2115180;28;20242;-68
2023/04/22 00:20:52;;;;;;;5.13;2.15;;;;;;;7.62;50.63;101057.25;2115222;28;21148;-67
2023/04/22 00:21:55;;;;;;;4.78;2.00;;;;;;;7.62;50.91;101068.78;2106495;28;20246;-67
2023/04/22 00:23:02;;;;;;;5.53;2.38;;;;;;;7.62;51.10;101058.06;2106908;28;20313;-67
2023/04/22 00:24:08;;;;;;;3.42;2.10;;;;;;;7.61;51.59;101061.81;2099221;28;20327;-67
2023/04/22 00:25:10;;;;;;;4.32;2.25;;;;;;;7.58;52.12;101056.94;2099451;28;21520;-67
2023/04/22 00:26:18;;;;;;;4.90;2.30;;;;;;;7.53;52.01;101059.53;2114828;28;20254;-68
2023/04/22 00:27:20;;;;;;;8.30;2.20;;;;;;;7.50;52.45;101054.69;2114271;28;20277;-68
2023/04/22 00:28:27;;;;;;;3.60;2.22;;;;;;;7.49;52.16;101058.41;2098679;28;20210;-68
2023/04/22 00:29:29;;;;;;;4.55;2.38;;;;;;;7.53;52.51;101062.22;2099918;28;20232;-68
2023/04/22 00:30:30;;;;;;;7.30;2.78;;;;;;;7.50;52.15;101053.88;2106748;28;20313;-68
2023/04/22 00:31:38;;;;;;;6.47;2.47;;;;;;;7.46;51.99;101056.25;2098170;28;20339;-69
2023/04/22 00:32:42;;;;;;;5.53;2.38;;;;;;;7.46;51.67;101053.56;2099154;28;20311;-68
2023/04/22 00:33:46;;;;;;;3.92;1.95;;;;;;;7.42;51.50;101050.56;2106542;28;20271;-68
2023/04/22 00:34:54;;;;;;;5.28;2.38;;;;;;;7.42;51.35;101055.13;2115104;28;20223;-68
2023/04/22 00:36:00;;;;;;;3.35;2.20;;;;;;;7.43;51.56;101056.72;2114763;28;20020;-68
2023/04/22 00:37:04;;;;;;;5.00;2.00;;;;;;;7.45;51.80;101053.81;2106310;28;20244;-69
2023/04/22 00:38:06;;;;;;;4.30;2.20;;;;;;;7.43;51.73;101054.84;2099329;27;20213;-67
2023/04/22 00:39:08;;;;;;;3.35;2.05;;;;;;;7.44;51.39;101058.38;2114663;27;20195;-68
2023/04/22 00:40:12;;;;;;;3.35;1.67;;;;;;;7.40;51.30;101049.19;2115067;27;20318;-69
2023/04/22 00:41:17;;;;;;;3.05;1.88;;;;;;;7.45;51.24;101056.50;2123302;27;21091;-69
2023/04/22 00:42:20;;;;;;;4.60;2.10;;;;;;;7.46;51.06;101048.22;2114468;28;20231;-67
2023/04/22 00:43:22;;;;;;;3.58;1.90;;;;;;;7.49;51.80;101053.06;2098619;28;20286;-69
2023/04/22 00:44:26;;;;;;;4.75;2.30;;;;;;;7.50;51.89;101046.66;2089407;28;20209;-69
2023/04/22 00:45:33;;;;;;;3.75;1.90;;;;;;;7.53;51.94;101051.50;2091562;28;20343;-69
2023/04/22 00:46:42;;;;;;;4.22;2.28;;;;;;;7.44;51.88;101026.25;2090160;28;20818;-68
2023/04/22 00:47:49;;;;;;;4.38;2.13;;;;;;;7.52;51.33;101036.53;2094125;28;20303;-68
2023/04/22 00:48:51;;;;;;;4.63;2.28;;;;;;;7.55;51.08;101040.59;2090654;28;21186;-68
2023/04/22 00:49:59;;;;;;;5.03;2.22;;;;;;;7.55;51.25;101040.59;2098626;27;20259;-69
2023/04/22 00:51:02;;;;;;;4.20;2.15;;;;;;;7.57;51.21;101044.63;2115559;27;21089;-69
2023/04/22 00:52:04;;;;;;;3.45;2.10;;;;;;;7.55;51.34;101033.38;2114248;28;20250;-67
2023/04/22 00:53:06;;;;;;;4.25;2.08;;;;;;;7.54;50.75;101029.06;2105888;28;20313;-68
2023/04/22 00:54:08;;;;;;;4.35;2.30;;;;;;;7.59;50.54;101034.47;2089900;28;20245;-68
2023/04/22 00:55:11;;;;;;;4.47;2.17;;;;;;;7.53;50.04;101024.75;2099512;28;20869;-68
2023/04/22 00:56:20;;;;;;;7.57;2.20;;;;;;;7.58;50.55;101032.06;2098528;28;20247;-68
2023/04/22 00:57:22;;;;;;;4.97;2.33;;;;;;;7.58;50.23;101037.41;2099527;28;20240;-68
2023/04/22 00:58:34;;;;;;;4.18;2.13;;;;;;;7.58;50.16;101035.53;2107240;28;20220;-69
2023/04/22 00:59:35;;;;;;;5.03;2.13;;;;;;;7.58;50.43;101032.06;2098631;28;21554;-68
2023/04/22 01:00:38;;;;;;;6.68;2.33;;;;;;;7.60;50.60;101035.31;2106256;28;20205;-68
2023/04/22 01:01:43;;;;;;;7.47;2.20;;;;;;;7.58;50.28;101032.88;2114334;28;20231;-68
2023/04/22 01:02:46;;;;;;;4.00;1.85;;;;;;;7.58;50.20;101035.53;2106949;28;20328;-68
2023/04/22 01:03:51;;;;;;;4.28;2.05;;;;;;;7.60;49.98;101030.75;2106264;28;21059;-68
2023/04/22 01:04:58;;;;;;;4.28;2.20;;;;;;;7.57;50.10;101031.25;2097915;28;21112;-67
2023/04/22 01:06:02;;;;;;;3.80;2.20;;;;;;;7.60;49.50;101036.13;2100301;28;21078;-68
2023/04/22 01:07:06;;;;;;;4.90;2.30;;;;;;;7.58;49.91;101040.91;2105203;28;20084;-68
2023/04/22 01:08:13;;;;;;;3.78;2.20;;;;;;;7.58;49.95;101040.91;2099639;28;20216;-68
2023/04/22 01:09:19;;;;;;;3.38;1.98;;;;;;;7.59;50.34;101039.03;2115688;27;20259;-67
2023/04/22 01:10:27;;;;;;;5.70;2.10;;;;;;;7.58;50.53;101035.53;2114335;28;20202;-68
2023/04/22 01:11:31;;;;;;;4.80;2.42;;;;;;;7.57;50.41;101039.28;2107570;27;20318;-68
2023/04/22 01:12:40;;;;;;;5.03;2.55;;;;;;;7.51;50.53;101034.91;2097926;28;20221;-66
2023/04/22 01:13:44;;;;;;;3.67;2.20;;;;;;;7.55;49.95;101044.06;2093198;28;20318;-67
2023/04/22 01:14:48;;;;;;;5.18;2.15;;;;;;;7.53;49.82;101043.50;2106950;27;20203;-68
2023/04/22 01:15:50;;;;;;;4.07;2.25;;;;;;;7.51;49.88;101040.28;2106207;28;20196;-66
2023/04/22 01:16:57;;;;;;;4.80;2.35;;;;;;;7.48;50.51;101040.75;2106652;27;20319;-67
2023/04/22 01:18:02;;;;;;;5.47;2.42;;;;;;;7.48;50.10;101038.09;2106698;28;20215;-67
2023/04/22 01:19:08;;;;;;;3.90;2.15;;;;;;;7.47;49.98;101039.16;2106555;28;20215;-67
2023/04/22 01:20:20;;;;;;;5.25;2.22;;;;;;;7.43;49.84;101038.81;2107986;27;20444;-67
2023/04/22 01:21:28;;;;;;;4.07;2.22;;;;;;;7.49;49.36;101042.38;2116193;27;20027;-67
2023/04/22 01:22:36;;;;;;;3.50;2.13;;;;;;;7.50;49.26;101040.50;2114350;28;20207;-67
2023/04/22 01:23:39;;;;;;;7.57;2.42;;;;;;;7.49;49.38;101037.03;2107780;27;21033;-67
2023/04/22 01:24:44;;;;;;;4.90;2.30;;;;;;;7.49;49.47;101034.34;2115273;27;20203;-67
2023/04/22 01:25:46;;;;;;;6.15;2.30;;;;;;;7.46;50.10;101037.50;2114950;27;21162;-67
2023/04/22 01:26:50;;;;;;;5.00;2.53;;;;;;;7.49;49.85;101033.53;2114761;27;20207;-67
2023/04/22 01:27:54;;;;;;;5.20;2.10;;;;;;;7.50;48.97;101043.97;2122845;27;20297;-67
2023/04/22 01:29:00;;;;;;;4.95;2.85;;;;;;;7.50;49.01;101043.19;2106854;28;21128;-67
2023/04/22 01:30:02;;;;;;;4.85;2.40;;;;;;;7.43;48.97;101024.63;2098623;28;21046;-67
2023/04/22 01:31:09;;;;;;;6.80;2.25;;;;;;;7.44;49.27;101039.63;2106766;27;20212;-68
2023/04/22 01:32:14;;;;;;;3.92;2.17;;;;;;;7.44;49.37;101042.31;2115688;27;20333;-68
2023/04/22 01:33:18;;;;;;;4.35;2.25;;;;;;;7.48;49.36;101039.94;2098280;28;21018;-67
2023/04/22 01:34:26;;;;;;;5.63;2.45;;;;;;;7.49;49.56;101046.91;2098417;27;20228;-67
2023/04/22 01:35:29;;;;;;;5.40;2.25;;;;;;;7.48;49.55;101040.75;2098525;28;20260;-68
2023/04/22 01:36:33;;;;;;;4.45;2.30;;;;;;;7.51;49.80;101042.13;2106030;28;20196;-68
2023/04/22 01:37:34;;;;;;;5.03;2.42;;;;;;;7.51;49.79;101050.97;2106388;27;20338;-68
2023/04/22 01:38:36;;;;;;;4.25;2.08;;;;;;;7.50;49.94;101041.31;2105806;28;20377;-67
2023/04/22 01:39:38;;;;;;;4.88;2.08;;;;;;;7.49;49.47;101037.03;2097474;28;20284;-68
2023/04/22 01:40:42;;;;;;;4.50;2.45;;;;;;;7.51;49.85;101037.59;2098126;27;20278;-68
2023/04/22 01:41:46;;;;;;;4.03;2.38;;;;;;;7.53;49.65;101042.69;2089615;28;20326;-67
2023/04/22 01:42:52;;;;;;;5.78;2.42;;;;;;;7.54;49.77;101037.09;2091194;28;20249;-68
2023/04/22 01:43:59;;;;;;;3.95;2.30;;;;;;;7.53;49.86;101043.50;2098805;28;21124;-67
2023/04/22 01:45:04;;;;;;;5.35;2.30;;;;;;;7.52;49.98;101039.19;2099352;28;21039;-67
2023/04/22 01:46:09;;;;;;;4.13;2.13;;;;;;;7.49;49.86;101031.66;2114370;28;20270;-67
2023/04/22 01:47:12;;;;;;;4.07;2.20;;;;;;;7.52;50.11;101039.19;2114217;27;20984;-67
2023/04/22 01:48:16;;;;;;;3.65;2.10;;;;;;;7.53;50.08;101043.50;2097811;28;20205;-68
2023/04/22 01:49:17;;;;;;;5.00;2.50;;;;;;;7.51;50.03;101032.25;2103280;27;20243;-68
2023/04/22 01:50:19;;;;;;;4.70;2.10;;;;;;;7.54;50.25;101039.78;2114117;27;21045;-68
2023/04/22 01:51:27;;;;;;;6.38;2.47;;;;;;;7.54;50.22;101038.97;2113589;28;20312;-68
2023/04/22 01:52:36;;;;;;;4.15;2.40;;;;;;;7.54;49.93;101037.09;2107141;28;20216;-68
2023/04/22 01:53:40;;;;;;;3.92;2.40;;;;;;;7.53;50.06;101037.34;2098489;28;20263;-68
2023/04/22 01:54:45;;;;;;;3.50;2.17;;;;;;;7.52;49.76;101036.53;2098631;28;20232;-68
2023/04/22 01:55:49;;;;;;;3.75;1.83;;;;;;;7.48;50.13;101038.09;2113955;28;20218;-67
2023/04/22 01:56:57;;;;;;;6.28;2.25;;;;;;;7.47;50.05;101028.44;2098141;28;20229;-67
2023/04/22 01:58:01;;;;;;;4.20;2.20;;;;;;;7.43;49.43;101032.66;2091243;28;20289;-68
2023/04/22 01:59:04;;;;;;;5.40;2.40;;;;;;;7.44;49.57;101028.94;2098411;28;20386;-67
2023/04/22 02:00:13;;;;;;;3.53;2.08;;;;;;;7.46;50.02;101034.84;2089929;28;20217;-68
2023/04/22 02:01:31;;;;;;;4.43;2.20;;;;;;;7.47;49.59;101039.16;2093419;28;20206;-67
2023/04/22 02:02:43;;;;;;;4.78;2.28;;;;;;;7.46;50.12;101037.50;2102668;28;20050;-68
2023/04/22 02:03:46;;;;;;;9.43;2.40;;;;;;;7.46;50.19;101034.03;2098123;28;21040;-67
2023/04/22 02:04:50;;;;;;;3.30;1.92;;;;;;;7.43;49.94;101027.31;2107102;27;20251;-67
2023/04/22 02:05:56;;;;;;;4.35;2.33;;;;;;;7.48;49.64;101035.41;2114541;27;20393;-68
2023/04/22 02:06:57;;;;;;;3.45;2.30;;;;;;;7.48;49.71;101034.59;2106110;28;20296;-68
2023/04/22 02:07:59;;;;;;;3.78;2.40;;;;;;;7.49;49.59;101034.34;2114270;27;20199;-68
2023/04/22 02:09:02;;;;;;;4.40;2.30;;;;;;;7.48;50.07;101035.41;2122908;27;20206;-67
2023/04/22 02:10:06;;;;;;;5.15;2.53;;;;;;;7.47;49.51;101036.47;2105600;28;20286;-67
2023/04/22 02:11:08;;;;;;;5.55;2.25;;;;;;;7.46;49.82;101032.16;2114524;27;20273;-67
2023/04/22 02:12:09;;;;;;;3.15;2.17;;;;;;;7.43;50.49;101032.66;2113900;28;20250;-67
2023/04/22 02:13:12;;;;;;;3.83;2.25;;;;;;;7.42;50.10;101028.38;2106051;27;20265;-67
2023/04/22 02:14:16;;;;;;;3.90;2.10;;;;;;;7.46;50.69;101031.34;2106384;28;20212;-67
2023/04/22 02:15:22;;;;;;;5.50;2.15;;;;;;;7.42;50.42;101020.34;2098234;28;20331;-67
2023/04/22 02:16:28;;;;;;;4.82;2.20;;;;;;;7.46;50.32;101031.34;2115418;27;20231;-67
2023/04/22 02:17:35;;;;;;;5.53;2.63;;;;;;;7.46;50.53;101026.81;2105975;28;20255;-67
2023/04/22 02:18:43;;;;;;;8.88;2.42;;;;;;;7.47;50.57;101028.44;2100245;27;20256;-67
2023/04/22 02:19:46;;;;;;;5.25;2.15;;;;;;;7.46;50.12;101017.97;2098451;28;20227;-67
2023/04/22 02:20:55;;;;;;;5.18;2.30;;;;;;;7.47;50.38;101019.59;2100088;27;20299;-67
2023/04/22 02:21:59;;;;;;;3.97;2.20;;;;;;;7.44;50.55;101026.25;2115510;27;20207;-67
2023/04/22 02:23:05;;;;;;;4.30;2.40;;;;;;;7.41;50.57;101024.06;2114677;27;20985;-67
2023/04/22 02:24:09;;;;;;;3.70;2.20;;;;;;;7.39;50.49;101020.81;2106591;28;20338;-67
2023/04/22 02:25:13;;;;;;;4.25;2.38;;;;;;;7.37;50.56;101017.56;2106882;27;20199;-67
2023/04/22 02:26:17;;;;;;;4.40;2.55;;;;;;;7.40;50.32;101022.44;2097506;28;20208;-67
2023/04/22 02:27:23;;;;;;;5.00;2.40;;;;;;;7.39;50.87;101026.97;2098981;27;20197;-67
2023/04/22 02:28:26;;;;;;;4.35;2.33;;;;;;;7.39;51.05;101024.31;2106047;28;20204;-68
2023/04/22 02:29:34;;;;;;;3.33;2.22;;;;;;;7.40;51.07;101023.25;2090679;28;20336;-68
2023/04/22 02:30:37;;;;;;;3.83;2.47;;;;;;;7.40;50.62;101027.78;2099771;27;20302;-68
2023/04/22 02:31:46;;;;;;;4.95;2.40;;;;;;;7.40;50.67;101027.78;2106421;28;21101;-68
2023/04/22 02:32:51;;;;;;;6.13;2.47;;;;;;;7.41;50.91;101018.72;2107495;28;20309;-68
2023/04/22 02:33:58;;;;;;;6.00;2.42;;;;;;;7.41;50.21;101018.72;2099869;28;20240;-67
2023/04/22 02:35:04;;;;;;;4.60;2.47;;;;;;;7.41;50.28;101026.75;2099887;28;20323;-67
2023/04/22 02:36:06;;;;;;;4.38;2.30;;;;;;;7.38;50.31;101022.69;2099984;28;21051;-67
2023/04/22 02:37:08;;;;;;;3.63;2.58;;;;;;;7.38;50.25;101016.53;2105814;28;21014;-67
2023/04/22 02:38:11;;;;;;;4.82;2.42;;;;;;;7.35;50.68;101019.72;2100802;28;20259;-67
2023/04/22 02:39:15;;;;;;;5.30;2.35;;;;;;;7.38;50.74;101019.22;2098974;28;20314;-67
2023/04/22 02:40:21;;;;;;;3.58;2.28;;;;;;;7.38;50.98;101014.66;2100396;28;20264;-68
2023/04/22 02:41:28;;;;;;;4.18;2.30;;;;;;;7.38;50.63;101016.53;2100480;28;20219;-68
2023/04/22 02:42:32;;;;;;;5.57;2.30;;;;;;;7.39;50.61;101015.47;2107305;28;20284;-67
2023/04/22 02:43:44;;;;;;;3.55;2.42;;;;;;;7.39;50.70;101021.63;2091445;28;20224;-67
2023/04/22 02:44:51;;;;;;;5.13;2.30;;;;;;;7.37;50.20;101020.25;2087555;28;20237;-67
2023/04/22 02:45:55;;;;;;;3.70;2.10;;;;;;;7.37;50.37;101020.25;2093000;28;20245;-67
2023/04/22 02:46:59;;;;;;;3.88;2.10;;;;;;;7.35;50.74;101025.88;2105868;28;20216;-67
2023/04/22 02:48:03;;;;;;;3.10;1.85;;;;;;;7.36;50.76;101013.28;2107355;28;20313;-67
2023/04/22 02:49:05;;;;;;;4.45;2.30;;;;;;;7.36;50.54;101016.78;2093840;28;20255;-67
2023/04/22 02:50:12;;;;;;;5.05;2.00;;;;;;;7.37;50.51;101018.38;2091678;28;20220;-67
2023/04/22 02:51:18;;;;;;;4.32;2.10;;;;;;;7.37;50.64;101012.22;2099597;28;21180;-67
2023/04/22 02:52:29;;;;;;;3.67;2.05;;;;;;;7.39;50.42;101018.97;2091649;28;21078;-67
2023/04/22 02:53:38;;;;;;;6.30;2.25;;;;;;;7.40;50.13;101017.91;2086285;28;21456;-68
2023/04/22 02:54:40;;;;;;;3.92;2.10;;;;;;;7.40;50.34;101017.09;2092716;28;20244;-67
2023/04/22 02:55:44;;;;;;;4.38;2.20;;;;;;;7.39;50.60;101018.16;2098963;28;20239;-67
2023/04/22 02:56:50;;;;;;;6.53;2.33;;;;;;;7.40;50.74;101011.75;2108269;28;20214;-67
2023/04/22 02:57:52;;;;;;;7.13;2.47;;;;;;;7.38;50.69;101012.00;2115311;28;20239;-67
2023/04/22 02:58:54;;;;;;;4.47;2.00;;;;;;;7.37;50.87;101013.03;2098498;28;21082;-67
2023/04/22 03:00:00;;;;;;;3.15;2.10;;;;;;;7.35;51.08;101014.34;2099637;28;20204;-67
2023/04/22 03:01:02;;;;;;;4.05;2.10;;;;;;;7.34;50.73;101008.19;2107415;28;20247;-67
2023/04/22 03:02:06;;;;;;;4.32;2.60;;;;;;;7.35;51.26;101014.34;2090572;28;20212;-68
2023/04/22 03:03:36;;;;;;;5.40;2.35;;;;;;;7.36;51.28;101013.28;2101993;28;20226;-67
2023/04/22 03:04:53;;;;;;;4.65;2.00;;;;;;;7.36;50.66;101010.63;2100638;28;20252;-67
2023/04/22 03:05:57;;;;;;;3.72;2.13;;;;;;;7.37;50.66;101012.22;2108236;28;20238;-67
2023/04/22 03:07:00;;;;;;;3.75;2.22;;;;;;;7.35;50.68;101015.16;2099099;28;21104;-68
2023/04/22 03:08:03;;;;;;;4.53;2.10;;;;;;;7.37;50.47;101006.88;2099589;28;20270;-68
2023/04/22 03:09:10;;;;;;;6.47;2.42;;;;;;;7.37;50.74;101001.53;2099177;28;21631;-67
2023/04/22 03:10:12;;;;;;;11.93;2.40;;;;;;;7.36;50.40;101014.09;2100563;28;20232;-67
2023/04/22 03:11:19;;;;;;;2.92;2.00;;;;;;;7.38;50.68;101011.19;2106889;28;20208;-67
2023/04/22 03:12:26;;;;;;;4.30;2.40;;;;;;;7.41;50.36;101011.50;2108094;28;20219;-68
2023/04/22 03:13:30;;;;;;;4.45;2.35;;;;;;;7.41;50.86;101008.03;2107584;28;20992;-68
2023/04/22 03:14:34;;;;;;;3.85;2.42;;;;;;;7.42;50.51;101015.00;2098825;28;20279;-68
2023/04/22 03:15:40;;;;;;;4.22;2.47;;;;;;;7.39;50.52;101005.59;2091813;28;20217;-68
2023/04/22 03:16:44;;;;;;;4.18;2.55;;;;;;;7.39;50.32;101015.47;2092019;28;20332;-68
2023/04/22 03:17:48;;;;;;;7.72;2.70;;;;;;;7.38;50.84;101014.66;2090858;28;20243;-68
2023/04/22 03:18:53;;;;;;;6.72;2.42;;;;;;;7.39;50.79;101004.78;2099958;28;21117;-67
2023/04/22 03:19:59;;;;;;;3.67;2.35;;;;;;;7.37;50.27;101012.22;2099544;28;20209;-68
2023/04/22 03:21:09;;;;;;;7.65;2.60;;;;;;;7.36;50.56;101007.94;2100582;28;20351;-68
2023/04/22 03:22:13;;;;;;;4.15;2.67;;;;;;;7.33;50.71;101011.09;2099486;28;20224;-68
2023/04/22 03:23:18;;;;;;;4.50;2.40;;;;;;;7.30;50.87;101011.59;2099195;28;20254;-68
2023/04/22 03:24:20;;;;;;;4.78;2.50;;;;;;;7.27;51.30;101006.75;2107486;28;20277;-68
2023/04/22 03:25:25;;;;;;;5.68;2.10;;;;;;;7.26;51.07;101005.13;2114822;28;20324;-68
2023/04/22 05:50:00;;;;;;;3.30;2.00;;;;;;;18.35;31.98;100961.84;2129411;27;20113;-68
2023/04/22 05:51:13;;;;;;;30.05;8.63;;;;;;;18.40;32.05;100958.94;2112246;28;20028;-67
2023/04/22 05:52:17;;;;;;;11.48;5.47;;;;;;;18.60;31.65;100968.41;2107658;27;20052;-69
2023/04/22 05:53:47;;;;;;;23.38;7.70;;;;;;;18.83;31.79;100965.50;2115487;27;20071;-68
2023/04/22 05:54:51;;;;;;;12.68;4.82;;;;;;;18.84;31.21;100967.09;2096304;28;20033;-70
2023/04/22 05:55:56;;;;;;;4.30;1.50;;;;;;;18.73;31.89;100972.09;2097695;27;20039;-68
2023/04/22 05:57:01;;;;;;;1.95;1.20;;;;;;;18.72;31.55;100965.81;2118356;27;20032;-68
2023/04/22 05:58:02;;;;;;;4.88;1.50;;;;;;;18.96;31.62;100965.28;2104795;28;20033;-68
2023/04/22 05:59:27;;;;;;;18.35;6.40;;;;;;;19.19;31.70;100963.13;2110735;27;20109;-69
2023/04/22 06:00:32;;;;;;;19.40;4.68;;;;;;;19.46;31.25;100955.66;2105145;28;20031;-69
2023/04/22 06:01:50;;;;;;;2.72;1.60;;;;;;;19.42;30.63;100965.63;2107109;28;20968;-69
2023/04/22 06:02:55;;;;;;;7.43;2.10;;;;;;;19.41;31.43;100964.00;2122806;27;20138;-69
2023/04/22 06:04:04;;;;;;;4.07;2.08;;;;;;;19.53;31.35;100961.38;2111887;28;20044;-70
2023/04/22 06:05:09;;;;;;;2.95;1.63;;;;;;;19.83;30.66;100964.94;2089740;28;20123;-70
2023/04/22 06:06:12;;;;;;;1.58;1.25;;;;;;;19.83;30.50;100964.09;2088795;28;20094;-70
2023/04/22 06:07:18;;;;;;;2.17;1.10;;;;;;;20.12;30.36;100971.47;2104769;27;20036;-69
2023/04/22 06:08:22;;;;;;;2.50;1.30;;;;;;;20.30;29.79;100967.47;2103076;28;20041;-69
2023/04/22 06:09:28;;;;;;;2.00;1.20;;;;;;;20.29;29.57;100959.59;2097625;28;20033;-69
2023/04/22 06:10:32;;;;;;;2.40;1.30;;;;;;;20.34;30.23;100959.41;2105233;28;20059;-71
2023/04/22 06:11:39;;;;;;;2.63;1.25;;;;;;;20.56;29.59;100959.06;2122296;27;20204;-71
2023/04/22 06:12:42;;;;;;;1.40;1.20;;;;;;;20.53;29.52;100958.94;2096502;28;20163;-69
2023/04/22 06:13:44;;;;;;;3.10;1.70;;;;;;;20.23;30.24;100960.94;2088719;28;20069;-69
2023/04/22 06:14:49;;;;;;;3.88;1.83;;;;;;;19.95;30.82;100953.28;2112846;28;20072;-70
2023/04/22 06:15:55;;;;;;;5.05;2.35;;;;;;;19.98;30.89;100960.00;2104942;28;20039;-71
2023/04/22 06:16:59;;;;;;;4.13;1.15;;;;;;;19.57;30.85;100956.84;2097032;28;20072;-74
2023/04/22 06:18:01;;;;;;;3.13;1.20;;;;;;;19.48;31.18;100961.56;2096901;28;20046;-70
2023/04/22 06:19:08;;;;;;;3.83;1.65;;;;;;;19.43;31.68;100950.84;2096460;28;20033;-71
2023/04/22 06:20:12;;;;;;;2.35;1.40;;;;;;;19.43;31.76;100961.75;2104445;28;20071;-72
2023/04/22 06:21:26;;;;;;;2.33;1.17;;;;;;;19.06;32.26;100958.69;2113820;27;20068;-72
2023/04/22 06:22:29;;;;;;;2.67;1.17;;;;;;;18.99;32.20;100951.03;2115190;27;20019;-72
2023/04/22 06:23:31;;;;;;;5.15;0.88;;;;;;;18.95;32.57;100955.53;2096143;28;20095;-72
2023/04/22 06:24:39;;;;;;;1.10;1.00;;;;;;;18.93;32.33;100951.53;2072828;28;20034;-72
2023/04/22 06:25:44;;;;;;;1.95;1.17;;;;;;;18.50;32.76;100955.09;2082394;28;20030;-72
2023/04/22 06:26:51;;;;;;;2.60;1.25;;;;;;;18.40;33.28;100964.38;2087875;28;20026;-73
2023/04/22 06:27:52;;;;;;;1.83;1.10;;;;;;;18.38;33.53;100965.81;2089896;28;20037;-73
2023/04/22 06:29:06;;;;;;;12.18;6.57;;;;;;;18.63;34.18;100964.19;2087461;28;20029;-71
2023/04/22 06:30:10;;;;;;;15.20;8.23;;;;;;;18.79;33.62;100959.06;2084880;28;21155;-72
2023/04/22 06:31:18;;;;;;;4.55;1.80;;;;;;;18.76;33.46;100963.28;2096769;28;20029;-73
2023/04/22 06:32:25;;;;;;;3.45;1.08;;;;;;;18.76;33.35;100963.28;2096056;28;20076;-72
2023/04/22 06:33:32;;;;;;;4.00;1.10;;;;;;;18.61;33.73;100958.31;2097211;28;20030;-76
2023/04/22 06:34:39;;;;;;;2.88;1.17;;;;;;;18.74;34.12;100958.13;2105876;28;20021;-77
2023/04/22 06:35:40;;;;;;;2.97;0.95;;;;;;;18.93;34.08;100959.69;2095402;28;20041;-72
2023/04/22 06:36:46;;;;;;;3.53;1.27;;;;;;;19.04;33.70;100955.50;2087680;28;20778;-72
2023/04/22 06:37:51;;;;;;;2.05;1.00;;;;;;;19.15;32.96;100951.28;2097965;28;20034;-72
2023/04/22 06:38:58;;;;;;;3.95;1.10;;;;;;;18.99;33.16;100956.47;2128634;27;20819;-73
2023/04/22 06:40:15;;;;;;;6.15;1.00;;;;;;;18.77;34.17;100955.91;2109594;28;20048;-69
2023/04/22 06:41:44;;;;;;;6.88;1.73;;;;;;;18.90;33.27;100963.06;2111780;27;20088;-69
2023/04/22 06:43:10;;;;;;;3.60;1.00;;;;;;;18.80;33.46;100957.97;2109490;28;20025;-69
2023/04/22 06:44:15;;;;;;;1.77;1.20;;;;;;;19.10;33.24;100954.19;2099863;28;20080;-70
2023/04/22 06:45:35;;;;;;;2.78;1.20;;;;;;;19.63;32.48;100954.75;2098370;28;20033;-70
2023/04/22 06:47:00;;;;;;;2.78;1.30;;;;;;;21.25;30.17;100959.44;2088571;28;20140;-69
2023/04/22 06:48:33;;;;;;;2.17;1.55;;;;;;;24.53;26.33;100958.25;2100578;28;20075;-72
2023/04/22 06:50:07;;;;;;;4.45;1.25;;;;;;;27.03;23.27;100950.75;2088293;28;20066;-72
2023/04/22 06:51:18;;;;;;;2.47;1.20;;;;;;;27.98;22.29;100953.00;2103689;28;20917;-68
2023/04/22 06:52:23;;;;;;;2.95;1.50;;;;;;;28.71;21.77;100941.81;2104891;28;20024;-72
2023/04/22 06:53:28;;;;;;;3.35;1.50;;;;;;;29.45;20.71;100948.56;2103084;28;20044;-69
2023/04/22 06:54:32;;;;;;;2.70;1.30;;;;;;;29.74;19.95;100952.84;2103905;28;20075;-73
2023/04/22 06:55:39;;;;;;;2.55;1.75;;;;;;;29.66;19.97;100959.59;2091899;28;20127;-72
2023/04/22 06:56:40;;;;;;;3.08;1.52;;;;;;;29.51;20.11;100950.50;2096732;28;20032;-76
2023/04/22 06:57:45;;;;;;;4.07;1.60;;;;;;;30.33;19.50;100955.03;2087850;28;20868;-71
2023/04/22 06:58:47;;;;;;;2.38;1.67;;;;;;;30.47;19.38;100948.59;2088397;28;20876;-72
2023/04/22 06:59:51;;;;;;;2.80;1.50;;;;;;;30.90;18.64;100956.69;2104687;28;20041;-72
2023/04/22 07:00:52;;;;;;;5.53;1.60;;;;;;;31.15;18.54;100956.47;2084020;28;20037;-70
2023/04/22 07:01:56;;;;;;;3.20;1.83;;;;;;;30.35;19.35;100954.63;2076920;28;20896;-70
2023/04/22 07:02:59;;;;;;;5.22;1.88;;;;;;;29.31;20.04;100943.81;2095653;28;20075;-68
2023/04/22 07:04:03;;;;;;;3.05;1.80;;;;;;;27.19;21.76;100945.00;2090155;28;20986;-70
2023/04/22 07:05:06;;;;;;;3.85;1.90;;;;;;;25.79;23.86;100955.63;2090846;28;20030;-70
2023/04/22 07:06:09;;;;;;;3.85;2.15;;;;;;;23.54;26.28;100952.97;2090426;28;20180;-70
2023/04/22 07:07:13;;;;;;;3.88;1.70;;;;;;;22.27;28.17;100952.03;2083276;28;20887;-70
2023/04/22 07:08:20;;;;;;;3.10;1.95;;;;;;;21.39;29.60;100951.72;2099670;28;20029;-71
2023/04/22 07:09:24;;;;;;;4.72;2.10;;;;;;;20.89;30.39;100954.72;2098116;28;20071;-71
2023/04/22 07:10:26;;;;;;;3.95;2.00;;;;;;;20.74;30.47;100954.25;2090355;28;20919;-68
2023/04/22 07:11:51;;;;;;;3.22;1.80;;;;;;;20.31;31.41;100957.34;2095776;28;20033;-69
2023/04/22 07:12:55;;;;;;;3.65;1.63;;;;;;;20.15;31.84;100943.50;2106859;28;20780;-69
2023/04/22 07:14:05;;;;;;;2.35;1.50;;;;;;;20.23;32.15;100952.75;2115899;28;20765;-73
2023/04/22 07:15:15;;;;;;;2.85;1.30;;;;;;;20.05;32.72;100944.72;2115503;28;20882;-72
2023/04/22 07:16:17;;;;;;;4.40;1.63;;;;;;;20.08;32.53;100948.69;2107155;28;20042;-74
2023/04/22 07:17:21;;;;;;;2.60;1.52;;;;;;;19.90;32.37;100948.03;2106717;28;20139;-74
2023/04/22 07:18:25;;;;;;;4.30;1.88;;;;;;;20.02;32.34;100953.56;2113317;28;20960;-75
2023/04/22 07:19:29;;;;;;;6.32;1.90;;;;;;;19.87;32.28;100954.16;2097993;28;20121;-75
2023/04/22 07:20:32;;;;;;;3.42;1.83;;;;;;;19.89;32.63;100946.41;2090087;28;20821;-74
2023/04/22 07:21:37;;;;;;;3.15;1.80;;;;;;;19.97;32.74;100948.28;2097876;28;20021;-75
2023/04/22 07:22:38;;;;;;;4.07;1.80;;;;;;;19.88;32.95;100953.00;2089785;28;20025;-74
2023/04/22 07:23:45;;;;;;;2.67;1.70;;;;;;;19.63;32.71;100950.06;2090170;28;20018;-74
2023/04/22 07:24:52;;;;;;;2.35;1.40;;;;;;;19.25;33.82;100938.41;2090238;28;20026;-71
2023/04/22 07:25:57;;;;;;;3.20;1.75;;;;;;;19.49;33.24;100946.00;2083266;28;20041;-73
2023/04/22 07:27:01;;;;;;;2.95;1.70;;;;;;;18.91;34.02;100934.69;2089859;28;20875;-73
2023/04/22 07:28:05;;;;;;;3.35;1.60;;;;;;;18.68;34.47;100934.88;2072638;28;20092;-74
2023/04/22 07:29:09;;;;;;;3.13;1.85;;;;;;;18.87;34.21;100939.19;2082218;28;20026;-75
2023/04/22 07:30:13;;;;;;;3.47;1.85;;;;;;;18.80;34.30;100942.44;2097388;28;20903;-74
2023/04/22 07:31:20;;;;;;;3.28;1.40;;;;;;;18.57;35.04;100940.97;2097799;28;20033;-75
2023/04/22 07:32:29;;;;;;;4.40;1.52;;;;;;;18.52;35.55;100944.69;2096802;28;20040;-75